sensor_id;sensor_type;location;lat;lon;timestamp;pressure;altitude;pressure_sealevel;temperature;humidity
67434;BME280;54305;47.950;6.572;2022-11-15T00:00:25;94054.69;;;9.50;100.00
67434;BME280;54305;47.950;6.572;2022-11-15T00:02:53;94057.59;;;9.47;100.00
67434;BME280;54305;47.950;6.572;2022-11-15T00:05:18;94047.50;;;9.44;100.00
67434;BME280;54305;47.950;6.572;2022-11-15T00:07:43;94047.19;;;9.47;100.00
67434;BME280;54305;47.950;6.572;2022-11-15T00:10:09;94045.25;;;9.49;100.00
67434;BME280;54305;47.950;6.572;2022-11-15T00:12:34;94054.69;;;9.50;100.00
67434;BME280;54305;47.950;6.572;2022-11-15T00:14:59;94048.16;;;9.54;100.00
67434;BME280;54305;47.950;6.572;2022-11-15T00:17:24;94057.28;;;9.50;100.00
67434;BME280;54305;47.950;6.572;2022-11-15T00:19:50;94052.72;;;9.52;100.00
67434;BME280;54305;47.950;6.572;2022-11-15T00:22:15;94042.50;;;9.50;100.00
67434;BME280;54305;47.950;6.572;2022-11-15T00:24:40;94046.53;;;9.53;100.00
67434;BME280;54305;47.950;6.572;2022-11-15T00:27:06;94048.50;;;9.43;100.00
67434;BME280;54305;47.950;6.572;2022-11-15T00:29:31;94044.44;;;9.48;100.00
67434;BME280;54305;47.950;6.572;2022-11-15T00:31:56;94036.81;;;9.47;100.00
67434;BME280;54305;47.950;6.572;2022-11-15T00:34:21;94031.91;;;9.44;100.00
67434;BME280;54305;47.950;6.572;2022-11-15T00:36:47;94037.63;;;9.47;100.00
67434;BME280;54305;47.950;6.572;2022-11-15T00:39:12;94025.09;;;9.43;100.00
67434;BME280;54305;47.950;6.572;2022-11-15T00:41:37;94033.56;;;9.45;100.00
67434;BME280;54305;47.950;6.572;2022-11-15T00:44:04;94035.19;;;9.46;100.00
67434;BME280;54305;47.950;6.572;2022-11-15T00:46:33;94026.72;;;9.44;100.00
67434;BME280;54305;47.950;6.572;2022-11-15T00:48:58;94022.84;;;9.40;100.00
67434;BME280;54305;47.950;6.572;2022-11-15T00:51:23;94025.75;;;9.37;100.00
67434;BME280;54305;47.950;6.572;2022-11-15T00:53:49;94026.75;;;9.36;100.00
67434;BME280;54305;47.950;6.572;2022-11-15T00:56:14;94025.44;;;9.40;100.00
67434;BME280;54305;47.950;6.572;2022-11-15T00:58:39;94029.97;;;9.38;100.00
67434;BME280;54305;47.950;6.572;2022-11-15T01:01:05;94022.19;;;9.38;100.00
67434;BME280;54305;47.950;6.572;2022-11-15T01:03:32;94019.25;;;9.33;100.00
67434;BME280;54305;47.950;6.572;2022-11-15T01:05:59;94027.03;;;9.33;100.00
67434;BME280;54305;47.950;6.572;2022-11-15T01:08:25;94024.59;;;9.31;100.00
67434;BME280;54305;47.950;6.572;2022-11-15T01:10:50;94016.00;;;9.31;100.00
67434;BME280;54305;47.950;6.572;2022-11-15T01:13:15;94032.22;;;9.25;100.00
67434;BME280;54305;47.950;6.572;2022-11-15T01:15:41;94024.09;;;9.20;100.00
67434;BME280;54305;47.950;6.572;2022-11-15T01:18:06;94025.75;;;9.21;100.00
67434;BME280;54305;47.950;6.572;2022-11-15T01:20:31;94022.47;;;9.19;100.00
67434;BME280;54305;47.950;6.572;2022-11-15T01:22:57;94026.06;;;9.18;100.00
67434;BME280;54305;47.950;6.572;2022-11-15T01:25:22;94028.34;;;9.21;100.00
67434;BME280;54305;47.950;6.572;2022-11-15T01:27:47;94020.56;;;9.21;100.00
67434;BME280;54305;47.950;6.572;2022-11-15T01:30:13;94024.13;;;9.28;100.00
67434;BME280;54305;47.950;6.572;2022-11-15T01:32:38;94025.09;;;9.27;100.00
67434;BME280;54305;47.950;6.572;2022-11-15T01:35:03;94016.00;;;9.23;100.00
67434;BME280;54305;47.950;6.572;2022-11-15T01:37:29;94023.78;;;9.23;100.00
67434;BME280;54305;47.950;6.572;2022-11-15T01:39:54;94015.97;;;9.15;100.00
67434;BME280;54305;47.950;6.572;2022-11-15T01:42:19;94017.63;;;9.16;100.00
67434;BME280;54305;47.950;6.572;2022-11-15T01:44:48;94015.19;;;9.14;100.00
67434;BME280;54305;47.950;6.572;2022-11-15T01:49:39;94012.44;;;9.16;100.00
67434;BME280;54305;47.950;6.572;2022-11-15T01:52:06;94012.59;;;9.14;100.00
67434;BME280;54305;47.950;6.572;2022-11-15T01:54:33;94008.50;;;9.20;100.00
67434;BME280;54305;47.950;6.572;2022-11-15T01:57:00;94014.03;;;9.17;100.00
67434;BME280;54305;47.950;6.572;2022-11-15T01:59:26;94013.72;;;9.12;100.00
67434;BME280;54305;47.950;6.572;2022-11-15T02:01:52;94005.09;;;9.11;100.00
67434;BME280;54305;47.950;6.572;2022-11-15T02:04:37;93994.56;;;9.13;100.00
67434;BME280;54305;47.950;6.572;2022-11-15T02:07:04;93993.56;;;9.14;100.00
67434;BME280;54305;47.950;6.572;2022-11-15T02:09:30;93999.91;;;9.11;100.00
67434;BME280;54305;47.950;6.572;2022-11-15T02:11:55;93995.03;;;9.16;100.00
67434;BME280;54305;47.950;6.572;2022-11-15T02:14:21;93990.00;;;9.15;100.00
67434;BME280;54305;47.950;6.572;2022-11-15T02:22:01;93992.94;;;9.12;100.00
67434;BME280;54305;47.950;6.572;2022-11-15T02:24:36;93979.13;;;9.11;100.00
67434;BME280;54305;47.950;6.572;2022-11-15T02:27:27;93986.75;;;9.13;100.00
67434;BME280;54305;47.950;6.572;2022-11-15T02:32:51;93976.69;;;9.10;100.00
67434;BME280;54305;47.950;6.572;2022-11-15T02:37:52;93975.06;;;9.09;100.00
67434;BME280;54305;47.950;6.572;2022-11-15T02:42:57;93959.78;;;9.06;100.00
67434;BME280;54305;47.950;6.572;2022-11-15T02:45:51;93969.88;;;9.09;100.00
67434;BME280;54305;47.950;6.572;2022-11-15T02:48:19;93952.66;;;9.08;100.00
67434;BME280;54305;47.950;6.572;2022-11-15T02:50:47;93959.00;;;9.05;100.00
67434;BME280;54305;47.950;6.572;2022-11-15T02:53:13;93961.44;;;9.07;100.00
67434;BME280;54305;47.950;6.572;2022-11-15T02:55:43;93949.09;;;9.09;100.00
67434;BME280;54305;47.950;6.572;2022-11-15T03:00:57;93948.59;;;9.05;100.00
67434;BME280;54305;47.950;6.572;2022-11-15T03:08:31;93946.47;;;9.01;100.00
67434;BME280;54305;47.950;6.572;2022-11-15T03:11:06;93941.28;;;9.01;100.00
67434;BME280;54305;47.950;6.572;2022-11-15T03:13:37;93931.72;;;9.01;100.00
67434;BME280;54305;47.950;6.572;2022-11-15T03:18:32;93927.34;;;9.02;100.00
67434;BME280;54305;47.950;6.572;2022-11-15T03:20:58;93933.81;;;9.06;100.00
67434;BME280;54305;47.950;6.572;2022-11-15T03:23:28;93934.47;;;9.00;100.00
67434;BME280;54305;47.950;6.572;2022-11-15T03:25:55;93932.84;;;8.99;100.00
67434;BME280;54305;47.950;6.572;2022-11-15T03:28:25;93925.38;;;8.96;100.00
67434;BME280;54305;47.950;6.572;2022-11-15T03:30:52;93926.84;;;8.98;100.00
67434;BME280;54305;47.950;6.572;2022-11-15T03:33:20;93930.91;;;8.93;100.00
67434;BME280;54305;47.950;6.572;2022-11-15T03:35:46;93934.00;;;8.96;100.00
67434;BME280;54305;47.950;6.572;2022-11-15T03:38:23;93919.88;;;8.99;100.00
67434;BME280;54305;47.950;6.572;2022-11-15T03:40:59;93922.47;;;8.99;100.00
67434;BME280;54305;47.950;6.572;2022-11-15T03:46:16;93916.28;;;9.00;100.00
67434;BME280;54305;47.950;6.572;2022-11-15T03:48:48;93923.75;;;8.95;100.00
67434;BME280;54305;47.950;6.572;2022-11-15T03:51:14;93919.84;;;8.91;100.00
67434;BME280;54305;47.950;6.572;2022-11-15T03:53:42;93918.56;;;8.87;100.00
67434;BME280;54305;47.950;6.572;2022-11-15T03:56:08;93915.63;;;8.90;100.00
67434;BME280;54305;47.950;6.572;2022-11-15T03:58:33;93914.19;;;8.87;100.00
67434;BME280;54305;47.950;6.572;2022-11-15T04:00:58;93916.63;;;8.89;100.00
67434;BME280;54305;47.950;6.572;2022-11-15T04:03:24;93920.84;;;8.90;100.00
67434;BME280;54305;47.950;6.572;2022-11-15T04:05:50;93918.22;;;8.90;100.00
67434;BME280;54305;47.950;6.572;2022-11-15T04:08:17;93919.06;;;8.90;100.00
67434;BME280;54305;47.950;6.572;2022-11-15T04:10:43;93910.28;;;8.91;100.00
67434;BME280;54305;47.950;6.572;2022-11-15T04:13:08;93912.72;;;8.93;100.00
67434;BME280;54305;47.950;6.572;2022-11-15T04:15:33;93913.88;;;8.90;100.00
67434;BME280;54305;47.950;6.572;2022-11-15T04:17:58;93911.91;;;8.92;100.00
67434;BME280;54305;47.950;6.572;2022-11-15T04:20:25;93917.44;;;8.89;100.00
67434;BME280;54305;47.950;6.572;2022-11-15T04:23:16;93916.63;;;8.89;100.00
67434;BME280;54305;47.950;6.572;2022-11-15T04:26:08;93916.63;;;8.89;100.00
67434;BME280;54305;47.950;6.572;2022-11-15T04:28:35;93910.13;;;8.85;100.00
67434;BME280;54305;47.950;6.572;2022-11-15T04:31:00;93902.81;;;8.80;100.00
67434;BME280;54305;47.950;6.572;2022-11-15T04:33:25;93903.97;;;8.78;100.00
67434;BME280;54305;47.950;6.572;2022-11-15T04:35:50;93905.22;;;8.82;100.00
67434;BME280;54305;47.950;6.572;2022-11-15T04:38:34;93904.75;;;8.78;100.00
67434;BME280;54305;47.950;6.572;2022-11-15T04:41:00;93903.78;;;8.79;100.00
67434;BME280;54305;47.950;6.572;2022-11-15T04:43:25;93904.94;;;8.85;100.00
67434;BME280;54305;47.950;6.572;2022-11-15T04:45:51;93895.69;;;8.82;100.00
67434;BME280;54305;47.950;6.572;2022-11-15T04:48:16;93888.38;;;8.78;100.00
67434;BME280;54305;47.950;6.572;2022-11-15T04:50:41;93893.22;;;8.81;100.00
67434;BME280;54305;47.950;6.572;2022-11-15T04:53:07;93888.38;;;8.78;100.00
67434;BME280;54305;47.950;6.572;2022-11-15T04:55:32;93888.38;;;8.78;100.00
67434;BME280;54305;47.950;6.572;2022-11-15T04:57:58;93890.78;;;8.79;100.00
67434;BME280;54305;47.950;6.572;2022-11-15T05:00:23;93892.94;;;8.84;100.00
67434;BME280;54305;47.950;6.572;2022-11-15T05:02:49;93882.84;;;8.81;100.00
67434;BME280;54305;47.950;6.572;2022-11-15T05:05:35;93883.97;;;8.78;100.00
67434;BME280;54305;47.950;6.572;2022-11-15T05:08:00;93887.72;;;8.84;100.00
67434;BME280;54305;47.950;6.572;2022-11-15T05:10:28;93884.81;;;8.79;100.00
67434;BME280;54305;47.950;6.572;2022-11-15T05:12:53;93879.94;;;8.84;100.00
67434;BME280;54305;47.950;6.572;2022-11-15T05:15:18;93879.28;;;8.82;100.00
67434;BME280;54305;47.950;6.572;2022-11-15T05:17:44;93875.72;;;8.83;100.00
67434;BME280;54305;47.950;6.572;2022-11-15T05:20:09;93868.25;;;8.80;100.00
67434;BME280;54305;47.950;6.572;2022-11-15T05:22:35;93860.47;;;8.80;100.00
67434;BME280;54305;47.950;6.572;2022-11-15T05:25:00;93857.53;;;8.75;100.00
67434;BME280;54305;47.950;6.572;2022-11-15T05:27:25;93859.16;;;8.76;100.00
67434;BME280;54305;47.950;6.572;2022-11-15T05:29:53;93852.66;;;8.72;100.00
67434;BME280;54305;47.950;6.572;2022-11-15T05:32:18;93857.53;;;8.75;100.00
67434;BME280;54305;47.950;6.572;2022-11-15T05:34:44;93843.59;;;8.76;100.00
67434;BME280;54305;47.950;6.572;2022-11-15T05:37:10;93841.97;;;8.75;100.00
67434;BME280;54305;47.950;6.572;2022-11-15T05:39:35;93849.13;;;8.73;100.00
67434;BME280;54305;47.950;6.572;2022-11-15T05:42:10;93837.09;;;8.72;100.00
67434;BME280;54305;47.950;6.572;2022-11-15T05:44:36;93837.75;;;8.74;100.00
67434;BME280;54305;47.950;6.572;2022-11-15T05:47:03;93834.81;;;8.77;100.00
67434;BME280;54305;47.950;6.572;2022-11-15T05:49:31;93844.56;;;8.83;100.00
67434;BME280;54305;47.950;6.572;2022-11-15T05:51:59;93836.47;;;8.78;100.00
67434;BME280;54305;47.950;6.572;2022-11-15T05:54:24;93830.59;;;8.76;100.00
67434;BME280;54305;47.950;6.572;2022-11-15T05:56:50;93835.16;;;8.74;100.00
67434;BME280;54305;47.950;6.572;2022-11-15T05:59:15;93838.41;;;8.76;100.00
67434;BME280;54305;47.950;6.572;2022-11-15T06:01:41;93832.06;;;8.78;100.00
67434;BME280;54305;47.950;6.572;2022-11-15T06:04:07;93834.50;;;8.72;100.00
67434;BME280;54305;47.950;6.572;2022-11-15T06:06:32;93832.41;;;8.67;100.00
67434;BME280;54305;47.950;6.572;2022-11-15T06:08:57;93835.31;;;8.64;100.00
67434;BME280;54305;47.950;6.572;2022-11-15T06:11:23;93835.47;;;8.71;100.00
67434;BME280;54305;47.950;6.572;2022-11-15T06:13:48;93835.97;;;8.66;100.00
67434;BME280;54305;47.950;6.572;2022-11-15T06:16:13;93832.91;;;8.63;100.00
67434;BME280;54305;47.950;6.572;2022-11-15T06:18:39;93834.16;;;8.67;100.00
67434;BME280;54305;47.950;6.572;2022-11-15T06:21:04;93846.50;;;8.65;100.00
67434;BME280;54305;47.950;6.572;2022-11-15T06:23:34;93831.91;;;8.72;100.00
67434;BME280;54305;47.950;6.572;2022-11-15T06:25:59;93833.84;;;8.70;100.00
67434;BME280;54305;47.950;6.572;2022-11-15T06:28:28;93835.00;;;8.67;100.00
67434;BME280;54305;47.950;6.572;2022-11-15T06:30:53;93838.09;;;8.63;100.00
67434;BME280;54305;47.950;6.572;2022-11-15T06:33:18;93834.97;;;8.59;100.00
67434;BME280;54305;47.950;6.572;2022-11-15T06:35:44;93829.31;;;8.64;100.00
67434;BME280;54305;47.950;6.572;2022-11-15T06:38:09;93829.31;;;8.64;100.00
67434;BME280;54305;47.950;6.572;2022-11-15T06:40:36;93828.19;;;8.66;100.00
67434;BME280;54305;47.950;6.572;2022-11-15T06:43:02;93828.84;;;8.76;100.00
67434;BME280;54305;47.950;6.572;2022-11-15T06:45:27;93828.00;;;8.76;100.00
67434;BME280;54305;47.950;6.572;2022-11-15T06:47:52;93831.59;;;8.75;100.00
67434;BME280;54305;47.950;6.572;2022-11-15T06:50:18;93827.53;;;8.72;100.00
67434;BME280;54305;47.950;6.572;2022-11-15T06:52:43;93833.53;;;8.73;100.00
67434;BME280;54305;47.950;6.572;2022-11-15T06:55:08;93833.84;;;8.70;100.00
67434;BME280;54305;47.950;6.572;2022-11-15T06:57:33;93831.91;;;8.72;100.00
67434;BME280;54305;47.950;6.572;2022-11-15T06:59:59;93828.34;;;8.73;100.00
67434;BME280;54305;47.950;6.572;2022-11-15T07:02:24;93827.69;;;8.79;100.00
67434;BME280;54305;47.950;6.572;2022-11-15T07:04:49;93835.97;;;8.82;100.00
67434;BME280;54305;47.950;6.572;2022-11-15T07:07:15;93839.38;;;8.83;100.00
67434;BME280;54305;47.950;6.572;2022-11-15T07:09:40;93833.88;;;8.78;100.00
67434;BME280;54305;47.950;6.572;2022-11-15T07:12:05;93834.50;;;8.80;100.00
67434;BME280;54305;47.950;6.572;2022-11-15T07:14:30;93832.38;;;8.83;100.00
67434;BME280;54305;47.950;6.572;2022-11-15T07:16:56;93835.66;;;8.85;100.00
67434;BME280;54305;47.950;6.572;2022-11-15T07:19:21;93829.31;;;8.88;100.00
67434;BME280;54305;47.950;6.572;2022-11-15T07:21:46;93841.16;;;8.90;100.00
67434;BME280;54305;47.950;6.572;2022-11-15T07:24:12;93838.41;;;8.92;100.00
67434;BME280;54305;47.950;6.572;2022-11-15T07:26:37;93839.69;;;8.96;100.00
67434;BME280;54305;47.950;6.572;2022-11-15T07:29:02;93832.22;;;9.01;100.00
67434;BME280;54305;47.950;6.572;2022-11-15T07:31:27;93838.38;;;9.00;100.00
67434;BME280;54305;47.950;6.572;2022-11-15T07:33:53;93830.94;;;8.97;100.00
67434;BME280;54305;47.950;6.572;2022-11-15T07:36:18;93835.78;;;9.00;100.00
67434;BME280;54305;47.950;6.572;2022-11-15T07:38:43;93828.31;;;9.05;100.00
67434;BME280;54305;47.950;6.572;2022-11-15T07:41:11;93829.13;;;9.05;100.00
67434;BME280;54305;47.950;6.572;2022-11-15T07:43:37;93820.53;;;9.13;100.00
67434;BME280;54305;47.950;6.572;2022-11-15T07:46:06;93826.84;;;9.10;100.00
67434;BME280;54305;47.950;6.572;2022-11-15T07:48:34;93820.19;;;9.16;100.00
67434;BME280;54305;47.950;6.572;2022-11-15T07:50:59;93819.84;;;9.19;100.00
67434;BME280;54305;47.950;6.572;2022-11-15T07:53:25;93821.97;;;9.23;100.00
67434;BME280;54305;47.950;6.572;2022-11-15T07:55:50;93823.91;;;9.21;100.00
67434;BME280;54305;47.950;6.572;2022-11-15T07:58:16;93821.47;;;9.20;100.00
67434;BME280;54305;47.950;6.572;2022-11-15T08:00:41;93813.88;;;9.18;100.00
67434;BME280;54305;47.950;6.572;2022-11-15T08:03:07;93819.84;;;9.19;100.00
67434;BME280;54305;47.950;6.572;2022-11-15T08:05:35;93820.84;;;9.26;100.00
67434;BME280;54305;47.950;6.572;2022-11-15T08:08:01;93812.84;;;9.27;100.00
67434;BME280;54305;47.950;6.572;2022-11-15T08:10:27;93816.25;;;9.36;100.00
67434;BME280;54305;47.950;6.572;2022-11-15T08:13:02;93812.81;;;9.43;100.00
67434;BME280;54305;47.950;6.572;2022-11-15T08:15:29;93805.88;;;9.36;100.00
67434;BME280;54305;47.950;6.572;2022-11-15T08:17:55;93798.84;;;9.44;100.00
67434;BME280;54305;47.950;6.572;2022-11-15T08:20:21;93798.63;;;9.54;100.00
67434;BME280;54305;47.950;6.572;2022-11-15T08:22:46;93795.09;;;9.55;100.00
67434;BME280;54305;47.950;6.572;2022-11-15T08:25:14;93788.53;;;9.59;100.00
67434;BME280;54305;47.950;6.572;2022-11-15T08:27:39;93787.09;;;9.56;100.00
67434;BME280;54305;47.950;6.572;2022-11-15T08:30:04;93794.72;;;9.58;100.00
67434;BME280;54305;47.950;6.572;2022-11-15T08:32:30;93788.25;;;9.54;100.00
67434;BME280;54305;47.950;6.572;2022-11-15T08:34:56;93786.63;;;9.53;100.00
67434;BME280;54305;47.950;6.572;2022-11-15T08:37:21;93791.81;;;9.53;100.00
67434;BME280;54305;47.950;6.572;2022-11-15T08:39:47;93794.59;;;9.51;100.00
67434;BME280;54305;47.950;6.572;2022-11-15T08:42:15;93799.31;;;9.48;100.00
67434;BME280;54305;47.950;6.572;2022-11-15T08:44:41;93797.69;;;9.47;100.00
67434;BME280;54305;47.950;6.572;2022-11-15T08:47:06;93791.81;;;9.53;100.00
67434;BME280;54305;47.950;6.572;2022-11-15T08:49:32;93795.03;;;9.63;100.00
67434;BME280;54305;47.950;6.572;2022-11-15T08:51:57;93792.28;;;9.64;100.00
67434;BME280;54305;47.950;6.572;2022-11-15T08:54:22;93791.44;;;9.72;100.00
67434;BME280;54305;47.950;6.572;2022-11-15T08:56:47;93791.09;;;9.75;100.00
67434;BME280;54305;47.950;6.572;2022-11-15T08:59:13;93790.88;;;9.84;100.00
67434;BME280;54305;47.950;6.572;2022-11-15T09:01:38;93793.78;;;9.89;100.00
67434;BME280;54305;47.950;6.572;2022-11-15T09:04:03;93788.09;;;9.94;100.00
67434;BME280;54305;47.950;6.572;2022-11-15T09:06:29;93788.03;;;10.02;100.00
67434;BME280;54305;47.950;6.572;2022-11-15T09:08:54;93787.97;;;10.18;100.00
67434;BME280;54305;47.950;6.572;2022-11-15T09:11:20;93778.81;;;10.22;100.00
67434;BME280;54305;47.950;6.572;2022-11-15T09:13:46;93779.06;;;10.35;100.00
67434;BME280;54305;47.950;6.572;2022-11-15T09:16:12;93782.34;;;10.37;100.00
67434;BME280;54305;47.950;6.572;2022-11-15T09:18:37;93780.81;;;10.42;100.00
67434;BME280;54305;47.950;6.572;2022-11-15T09:21:03;93780.22;;;10.55;100.00
67434;BME280;54305;47.950;6.572;2022-11-15T09:23:29;93779.94;;;10.50;100.00
67434;BME280;54305;47.950;6.572;2022-11-15T09:25:58;93779.19;;;10.64;100.00
67434;BME280;54305;47.950;6.572;2022-11-15T09:28:24;93767.72;;;10.73;100.00
67434;BME280;54305;47.950;6.572;2022-11-15T09:30:49;93762.69;;;10.71;100.00
67434;BME280;54305;47.950;6.572;2022-11-15T09:33:14;93759.28;;;10.71;100.00
67434;BME280;54305;47.950;6.572;2022-11-15T09:35:40;93763.41;;;10.80;100.00
67434;BME280;54305;47.950;6.572;2022-11-15T09:38:06;93759.72;;;10.74;100.00
67434;BME280;54305;47.950;6.572;2022-11-15T09:40:31;93750.69;;;10.85;100.00
67434;BME280;54305;47.950;6.572;2022-11-15T09:45:46;93749.53;;;11.02;100.00
67434;BME280;54305;47.950;6.572;2022-11-15T09:48:18;93748.41;;;11.19;100.00
67434;BME280;54305;47.950;6.572;2022-11-15T09:50:49;93749.00;;;11.35;100.00
67434;BME280;54305;47.950;6.572;2022-11-15T09:53:38;93749.03;;;11.50;100.00
67434;BME280;54305;47.950;6.572;2022-11-15T09:56:01;93749.66;;;11.66;100.00
67434;BME280;54305;47.950;6.572;2022-11-15T09:58:43;93748.75;;;11.74;100.00
67434;BME280;54305;47.950;6.572;2022-11-15T10:01:16;93748.69;;;12.03;100.00
67434;BME280;54305;47.950;6.572;2022-11-15T10:03:43;93744.22;;;12.32;100.00
67434;BME280;54305;47.950;6.572;2022-11-15T10:06:15;93744.25;;;12.39;100.00
67434;BME280;54305;47.950;6.572;2022-11-15T10:09:04;93748.09;;;12.22;100.00
67434;BME280;54305;47.950;6.572;2022-11-15T10:11:32;93735.31;;;11.91;100.00
67434;BME280;54305;47.950;6.572;2022-11-15T10:14:10;93740.25;;;12.01;100.00
67434;BME280;54305;47.950;6.572;2022-11-15T10:24:27;93730.03;;;11.85;100.00
67434;BME280;54305;47.950;6.572;2022-11-15T10:26:56;93728.66;;;11.89;100.00
67434;BME280;54305;47.950;6.572;2022-11-15T10:29:22;93719.13;;;11.96;100.00
67434;BME280;54305;47.950;6.572;2022-11-15T10:31:48;93717.38;;;12.03;100.00
67434;BME280;54305;47.950;6.572;2022-11-15T10:34:14;93712.53;;;12.00;100.00
67434;BME280;54305;47.950;6.572;2022-11-15T10:36:57;93705.25;;;11.95;100.00
67434;BME280;54305;47.950;6.572;2022-11-15T10:39:22;93706.34;;;12.01;100.00
67434;BME280;54305;47.950;6.572;2022-11-15T10:41:48;93694.09;;;12.01;100.00
67434;BME280;54305;47.950;6.572;2022-11-15T10:44:18;93696.50;;;12.03;100.00
67434;BME280;54305;47.950;6.572;2022-11-15T10:46:48;93690.53;;;12.09;100.00
67434;BME280;54305;47.950;6.572;2022-11-15T10:57:08;93675.56;;;11.96;100.00
67434;BME280;54305;47.950;6.572;2022-11-15T10:59:37;93662.69;;;11.95;100.00
67434;BME280;54305;47.950;6.572;2022-11-15T11:02:20;93655.25;;;11.92;100.00
67434;BME280;54305;47.950;6.572;2022-11-15T11:04:51;93653.34;;;12.00;100.00
67434;BME280;54305;47.950;6.572;2022-11-15T11:07:21;93648.19;;;12.07;100.00
67434;BME280;54305;47.950;6.572;2022-11-15T11:09:47;93639.22;;;12.16;100.00
67434;BME280;54305;47.950;6.572;2022-11-15T11:12:26;93634.09;;;12.29;100.00
67434;BME280;54305;47.950;6.572;2022-11-15T11:14:52;93619.72;;;12.12;100.00
67434;BME280;54305;47.950;6.572;2022-11-15T11:17:40;93617.97;;;12.19;100.00
67434;BME280;54305;47.950;6.572;2022-11-15T11:20:28;93607.50;;;12.19;100.00
67434;BME280;54305;47.950;6.572;2022-11-15T11:25:45;93600.31;;;12.76;100.00
67434;BME280;54305;47.950;6.572;2022-11-15T11:30:47;93601.84;;;13.32;94.16
67434;BME280;54305;47.950;6.572;2022-11-15T11:33:20;93595.09;;;13.57;96.30
67434;BME280;54305;47.950;6.572;2022-11-15T11:41:00;93585.34;;;13.38;97.66
67434;BME280;54305;47.950;6.572;2022-11-15T11:43:40;93587.69;;;13.20;99.81
67434;BME280;54305;47.950;6.572;2022-11-15T11:53:56;93570.03;;;13.35;93.52
67434;BME280;54305;47.950;6.572;2022-11-15T11:58:47;93561.59;;;13.33;95.96
67434;BME280;54305;47.950;6.572;2022-11-15T12:03:46;93550.44;;;13.05;95.88
67434;BME280;54305;47.950;6.572;2022-11-15T12:06:32;93542.25;;;13.14;95.46
67434;BME280;54305;47.950;6.572;2022-11-15T12:09:01;93546.50;;;13.22;90.60
67434;BME280;54305;47.950;6.572;2022-11-15T12:13:53;93543.88;;;13.28;98.54
67434;BME280;54305;47.950;6.572;2022-11-15T12:16:25;93546.25;;;13.10;92.49
67434;BME280;54305;47.950;6.572;2022-11-15T12:18:53;93536.13;;;13.01;96.96
67434;BME280;54305;47.950;6.572;2022-11-15T12:23:46;93531.16;;;12.72;90.53
67434;BME280;54305;47.950;6.572;2022-11-15T12:26:17;93522.25;;;12.60;88.01
67434;BME280;54305;47.950;6.572;2022-11-15T12:28:47;93529.00;;;12.48;93.32
67434;BME280;54305;47.950;6.572;2022-11-15T12:33:42;93522.84;;;12.28;98.28
67434;BME280;54305;47.950;6.572;2022-11-15T12:41:14;93510.84;;;12.33;93.58
67434;BME280;54305;47.950;6.572;2022-11-15T12:43:43;93505.34;;;12.22;91.90
67434;BME280;54305;47.950;6.572;2022-11-15T12:48:53;93504.13;;;12.18;93.02
67434;BME280;54305;47.950;6.572;2022-11-15T12:51:19;93487.44;;;12.19;97.49
67434;BME280;54305;47.950;6.572;2022-11-15T12:53:45;93499.16;;;12.29;93.05
67434;BME280;54305;47.950;6.572;2022-11-15T13:01:07;93488.13;;;12.61;88.37
67434;BME280;54305;47.950;6.572;2022-11-15T13:03:33;93484.09;;;12.65;92.48
67434;BME280;54305;47.950;6.572;2022-11-15T13:05:59;93483.63;;;12.55;87.16
67434;BME280;54305;47.950;6.572;2022-11-15T13:08:42;93478.06;;;12.65;87.04
67434;BME280;54305;47.950;6.572;2022-11-15T13:13:52;93476.84;;;12.61;96.32
67434;BME280;54305;47.950;6.572;2022-11-15T13:16:19;93469.56;;;12.50;92.73
67434;BME280;54305;47.950;6.572;2022-11-15T13:18:52;93460.09;;;12.42;94.97
67434;BME280;54305;47.950;6.572;2022-11-15T13:21:22;93458.66;;;12.40;95.70
67434;BME280;54305;47.950;6.572;2022-11-15T13:24:15;93462.28;;;12.45;91.75
67434;BME280;54305;47.950;6.572;2022-11-15T13:26:41;93454.28;;;12.47;95.51
67434;BME280;54305;47.950;6.572;2022-11-15T13:29:17;93442.28;;;12.59;88.22
67434;BME280;54305;47.950;6.572;2022-11-15T13:31:43;93439.94;;;12.77;90.99
67434;BME280;54305;47.950;6.572;2022-11-15T13:36:43;93441.47;;;12.58;93.48
67434;BME280;54305;47.950;6.572;2022-11-15T13:39:26;93437.81;;;12.53;91.57
67434;BME280;54305;47.950;6.572;2022-11-15T13:41:52;93431.38;;;12.49;90.14
67434;BME280;54305;47.950;6.572;2022-11-15T13:44:24;93423.78;;;12.54;89.05
67434;BME280;54305;47.950;6.572;2022-11-15T13:47:35;93427.38;;;12.53;94.04
67434;BME280;54305;47.950;6.572;2022-11-15T13:49:35;93424.94;;;12.51;92.99
67434;BME280;54305;47.950;6.572;2022-11-15T13:52:05;93424.91;;;12.38;92.44
67434;BME280;54305;47.950;6.572;2022-11-15T13:54:35;93414.06;;;12.35;95.30
67434;BME280;54305;47.950;6.572;2022-11-15T13:59:33;93404.78;;;12.26;94.84
67434;BME280;54305;47.950;6.572;2022-11-15T14:02:10;93403.78;;;12.27;93.82
67434;BME280;54305;47.950;6.572;2022-11-15T14:04:36;93405.19;;;12.29;94.65
67434;BME280;54305;47.950;6.572;2022-11-15T14:07:03;93403.56;;;12.22;97.27
67434;BME280;54305;47.950;6.572;2022-11-15T14:11:54;93400.25;;;12.07;88.22
67434;BME280;54305;47.950;6.572;2022-11-15T14:14:21;93392.22;;;12.02;95.49
67434;BME280;54305;47.950;6.572;2022-11-15T14:16:48;93385.25;;;11.81;97.86
67434;BME280;54305;47.950;6.572;2022-11-15T14:24:32;93368.97;;;11.52;100.00
67434;BME280;54305;47.950;6.572;2022-11-15T14:26:57;93363.88;;;11.65;96.57
67434;BME280;54305;47.950;6.572;2022-11-15T14:29:40;93364.13;;;11.70;95.95
67434;BME280;54305;47.950;6.572;2022-11-15T14:32:15;93347.47;;;11.71;97.14
67434;BME280;54305;47.950;6.572;2022-11-15T14:34:41;93353.31;;;11.73;93.50
67434;BME280;54305;47.950;6.572;2022-11-15T14:37:16;93357.53;;;11.74;98.85
67434;BME280;54305;47.950;6.572;2022-11-15T14:39:43;93351.06;;;11.70;99.58
67434;BME280;54305;47.950;6.572;2022-11-15T14:42:09;93341.41;;;11.64;99.00
67434;BME280;54305;47.950;6.572;2022-11-15T14:44:34;93341.06;;;11.73;91.46
67434;BME280;54305;47.950;6.572;2022-11-15T14:46:59;93335.06;;;11.73;96.47